Time;durP1;ratioP1;P1;durP2;ratioP2;P2;SDS_P1;SDS_P2;PMS_P1;PMS_P2;Temp;Humidity;BMP_temperature;BMP_pressure;BME280_temperature;BME280_humidity;BME280_pressure;Samples;Min_cycle;Max_cycle;Signal;HPM_P1;HPM_P2
2024/04/18 00:00:28;;;;;;;6.70;3.90;;;3.40;99.90;;;;;;5438300;26;20223;-61
2024/04/18 00:02:54;;;;;;;5.80;4.03;;;3.40;99.90;;;;;;5433753;26;20571;-62
2024/04/18 00:05:20;;;;;;;5.23;4.23;;;3.30;99.90;;;;;;5426844;26;20455;-61
2024/04/18 00:07:46;;;;;;;5.83;4.00;;;3.30;99.90;;;;;;5432303;26;20227;-61
2024/04/18 00:10:12;;;;;;;5.60;3.87;;;3.30;99.90;;;;;;5409121;26;20236;-60
2024/04/18 00:12:41;;;;;;;5.50;4.00;;;3.30;99.90;;;;;;5439692;26;20738;-61
2024/04/18 00:15:09;;;;;;;5.93;4.80;;;3.30;99.90;;;;;;5435890;26;20450;-61
2024/04/18 00:17:35;;;;;;;5.20;4.03;;;3.20;99.90;;;;;;5425485;26;20453;-61
2024/04/18 00:20:02;;;;;;;4.33;3.67;;;3.20;99.90;;;;;;5435443;26;20459;-61
2024/04/18 00:22:27;;;;;;;4.93;3.80;;;3.20;99.90;;;;;;5439560;26;20468;-61
2024/04/18 00:24:53;;;;;;;7.13;3.90;;;3.20;99.90;;;;;;5435938;26;20494;-61
2024/04/18 00:27:19;;;;;;;5.50;4.20;;;3.20;99.90;;;;;;5428918;26;20316;-60
2024/04/18 00:29:45;;;;;;;4.63;4.23;;;3.20;99.90;;;;;;5419225;26;20225;-61
2024/04/18 00:32:11;;;;;;;3.93;3.40;;;3.20;99.90;;;;;;5392513;26;20227;-61
2024/04/18 00:34:36;;;;;;;4.83;3.83;;;3.20;99.90;;;;;;5402113;26;21240;-61
2024/04/18 00:37:02;;;;;;;5.00;3.83;;;3.20;99.90;;;;;;5425834;26;20240;-62
2024/04/18 00:39:28;;;;;;;5.60;4.33;;;3.20;99.90;;;;;;5430497;26;20267;-61
2024/04/18 00:41:53;;;;;;;4.63;3.80;;;3.20;99.90;;;;;;5441101;26;23470;-61
2024/04/18 00:44:21;;;;;;;4.67;3.53;;;3.20;99.90;;;;;;5434314;26;20267;-60
2024/04/18 00:46:48;;;;;;;5.03;3.80;;;3.20;99.90;;;;;;5421995;26;20322;-61
2024/04/18 00:49:15;;;;;;;4.80;3.97;;;3.20;99.90;;;;;;5435315;26;20511;-61
2024/04/18 00:51:41;;;;;;;5.33;4.07;;;3.20;99.90;;;;;;5440908;26;20560;-61
2024/04/18 00:54:07;;;;;;;4.40;3.60;;;3.20;99.90;;;;;;5431927;26;20461;-61
2024/04/18 00:56:34;;;;;;;6.07;4.17;;;3.10;99.90;;;;;;5438979;26;20437;-62
2024/04/18 00:59:01;;;;;;;4.67;3.80;;;3.10;99.90;;;;;;5420929;26;20453;-61
2024/04/18 01:01:29;;;;;;;5.73;4.20;;;3.00;99.90;;;;;;5426338;26;20449;-61
2024/04/18 01:03:58;;;;;;;6.20;4.30;;;3.10;99.90;;;;;;5434102;26;21342;-61
2024/04/18 01:06:24;;;;;;;6.33;4.33;;;3.10;99.90;;;;;;5431832;26;20518;-62
2024/04/18 01:08:53;;;;;;;5.40;3.83;;;3.00;99.90;;;;;;5423553;26;20856;-61
2024/04/18 01:11:19;;;;;;;4.80;4.00;;;3.00;99.90;;;;;;5439993;26;20449;-60
2024/04/18 01:13:44;;;;;;;4.13;3.67;;;3.00;99.90;;;;;;5427915;26;20525;-61
2024/04/18 01:16:10;;;;;;;4.30;3.47;;;3.00;99.90;;;;;;5441802;26;20270;-61
2024/04/18 01:18:36;;;;;;;4.43;4.03;;;3.00;99.90;;;;;;5434566;26;20566;-60
2024/04/18 01:21:01;;;;;;;6.20;4.47;;;3.00;99.90;;;;;;5433792;26;20274;-61
2024/04/18 01:23:28;;;;;;;4.17;3.70;;;3.00;99.90;;;;;;5427927;26;20714;-61
2024/04/18 01:25:53;;;;;;;3.97;3.57;;;3.00;99.90;;;;;;5438921;26;20730;-60
2024/04/18 01:28:19;;;;;;;6.40;4.90;;;3.00;99.90;;;;;;5397598;26;20501;-60
2024/04/18 01:30:45;;;;;;;5.90;3.90;;;3.00;99.90;;;;;;5440536;26;20292;-60
2024/04/18 01:33:11;;;;;;;4.53;3.40;;;3.00;99.90;;;;;;5428423;26;20457;-61
2024/04/18 01:35:36;;;;;;;4.30;3.90;;;3.00;99.90;;;;;;5434375;26;20235;-61
2024/04/18 01:38:02;;;;;;;8.50;4.50;;;3.00;99.90;;;;;;5401649;26;20284;-61
2024/04/18 01:40:28;;;;;;;5.43;3.53;;;3.00;99.90;;;;;;5437873;26;20261;-61
2024/04/18 01:42:54;;;;;;;4.10;3.37;;;3.00;99.90;;;;;;5433345;26;20532;-61
2024/04/18 01:45:20;;;;;;;3.73;3.27;;;3.00;99.90;;;;;;5430854;26;20480;-61
2024/04/18 01:47:45;;;;;;;4.17;3.23;;;3.00;99.90;;;;;;5418836;26;20236;-61
2024/04/18 01:50:11;;;;;;;4.33;3.10;;;3.00;99.90;;;;;;5432277;26;20353;-61
2024/04/18 01:52:37;;;;;;;3.97;3.30;;;3.00;99.90;;;;;;5439159;26;20223;-60
2024/04/18 01:55:05;;;;;;;3.83;2.97;;;3.00;99.90;;;;;;5433468;26;20329;-61
2024/04/18 01:57:31;;;;;;;4.77;3.47;;;3.00;99.90;;;;;;5429081;26;20470;-60
2024/04/18 01:59:56;;;;;;;3.67;3.37;;;3.00;99.90;;;;;;5439192;26;20456;-61
2024/04/18 02:02:23;;;;;;;4.07;3.60;;;3.00;99.90;;;;;;5429362;26;20551;-61
2024/04/18 02:04:49;;;;;;;3.90;3.40;;;3.00;99.90;;;;;;5438503;26;20275;-60
2024/04/18 02:07:15;;;;;;;4.23;3.50;;;3.00;99.90;;;;;;5427265;26;21118;-60
2024/04/18 02:09:40;;;;;;;7.10;3.50;;;3.00;99.90;;;;;;5437311;26;20228;-60
2024/04/18 02:12:06;;;;;;;5.23;3.30;;;3.00;99.90;;;;;;5443564;26;20342;-60
2024/04/18 02:14:32;;;;;;;4.03;3.33;;;3.00;99.90;;;;;;5432075;26;20216;-61
2024/04/18 02:16:57;;;;;;;3.63;3.33;;;2.90;99.90;;;;;;5438522;26;20266;-59
2024/04/18 02:19:24;;;;;;;4.40;3.53;;;2.90;99.90;;;;;;5439829;26;20604;-61
2024/04/18 02:21:49;;;;;;;3.40;3.10;;;2.90;99.90;;;;;;5440484;26;21503;-60
2024/04/18 02:24:15;;;;;;;4.17;3.50;;;2.90;99.90;;;;;;5429138;26;20543;-62
2024/04/18 02:26:42;;;;;;;8.80;3.90;;;2.90;99.90;;;;;;5435060;26;20227;-61
2024/04/18 02:29:08;;;;;;;3.17;2.97;;;2.80;99.90;;;;;;5428064;26;20248;-61
2024/04/18 02:31:33;;;;;;;5.30;3.60;;;2.80;99.90;;;;;;5401624;26;20572;-62
2024/04/18 02:33:59;;;;;;;4.20;3.37;;;2.80;99.90;;;;;;5433324;26;20224;-61
2024/04/18 02:36:25;;;;;;;3.63;3.33;;;2.80;99.90;;;;;;5436387;26;20728;-61
2024/04/18 02:38:50;;;;;;;3.20;2.90;;;2.80;99.90;;;;;;5434852;26;20279;-61
2024/04/18 02:41:16;;;;;;;3.93;3.53;;;2.80;99.90;;;;;;5443623;26;20232;-61
2024/04/18 02:43:42;;;;;;;5.33;4.00;;;2.80;99.90;;;;;;5438096;26;20267;-61
2024/04/18 02:46:08;;;;;;;5.20;3.70;;;2.80;99.90;;;;;;5444258;26;20364;-61
2024/04/18 02:48:33;;;;;;;5.07;4.00;;;2.80;99.90;;;;;;5433392;26;20985;-62
2024/04/18 02:50:59;;;;;;;4.33;3.40;;;2.90;99.90;;;;;;5439995;26;20228;-61
2024/04/18 02:53:24;;;;;;;4.10;3.50;;;2.90;99.90;;;;;;5403679;26;20233;-61
2024/04/18 02:55:50;;;;;;;4.00;3.60;;;2.90;99.90;;;;;;5438258;26;20690;-62
2024/04/18 02:58:15;;;;;;;4.33;3.77;;;2.90;99.90;;;;;;5424136;26;20232;-61
2024/04/18 03:00:41;;;;;;;3.80;3.33;;;2.90;99.90;;;;;;5429258;26;20336;-62
2024/04/18 03:03:07;;;;;;;3.10;2.80;;;2.80;99.90;;;;;;5410616;26;20283;-61
2024/04/18 03:05:32;;;;;;;3.77;3.43;;;2.80;99.90;;;;;;5432826;26;20221;-62
2024/04/18 03:07:58;;;;;;;5.20;4.03;;;2.80;99.90;;;;;;5435053;26;20642;-61
2024/04/18 03:10:24;;;;;;;4.60;3.97;;;2.80;99.90;;;;;;5403970;26;20235;-62
2024/04/18 03:12:56;;;;;;;4.37;3.40;;;2.80;99.90;;;;;;5435781;26;20538;-61
2024/04/18 03:15:22;;;;;;;5.23;4.20;;;2.90;99.90;;;;;;5434990;26;20466;-62
2024/04/18 03:17:51;;;;;;;9.33;5.20;;;2.90;99.90;;;;;;5435169;26;20575;-61
2024/04/18 03:20:17;;;;;;;6.30;4.50;;;2.90;99.90;;;;;;5430560;26;20236;-61
2024/04/18 03:22:43;;;;;;;5.40;3.63;;;2.90;99.90;;;;;;5424905;26;20505;-62
2024/04/18 03:25:09;;;;;;;5.00;4.00;;;2.90;99.90;;;;;;5432735;26;20258;-61
2024/04/18 03:27:35;;;;;;;4.83;3.70;;;2.90;99.90;;;;;;5424102;26;21092;-61
2024/04/18 03:30:00;;;;;;;4.93;3.70;;;2.90;99.90;;;;;;5423731;26;20756;-61
2024/04/18 03:32:26;;;;;;;7.40;4.10;;;2.90;99.90;;;;;;5435668;26;20449;-61
2024/04/18 03:34:52;;;;;;;5.60;4.23;;;2.90;99.90;;;;;;5443909;26;20800;-62
2024/04/18 03:37:18;;;;;;;7.00;4.83;;;2.90;99.90;;;;;;5437153;26;20465;-62
2024/04/18 03:39:43;;;;;;;5.70;4.60;;;2.90;99.90;;;;;;5437866;26;20576;-62
2024/04/18 03:42:09;;;;;;;4.30;3.90;;;2.90;99.90;;;;;;5441311;26;20270;-62
2024/04/18 03:44:34;;;;;;;5.43;4.03;;;2.90;99.90;;;;;;5444481;26;20760;-61
2024/04/18 03:47:00;;;;;;;4.17;3.40;;;3.00;99.90;;;;;;5429922;26;20217;-62
2024/04/18 03:49:28;;;;;;;5.03;4.27;;;3.00;99.90;;;;;;5429895;26;20225;-61
2024/04/18 03:51:53;;;;;;;6.20;3.70;;;3.00;99.90;;;;;;5430807;26;20223;-62
2024/04/18 03:54:20;;;;;;;4.70;4.30;;;3.00;99.90;;;;;;5426188;26;21020;-61
2024/04/18 03:56:45;;;;;;;7.23;6.00;;;3.00;99.90;;;;;;5429283;26;20217;-61
2024/04/18 03:59:11;;;;;;;6.30;5.40;;;3.00;99.90;;;;;;5425081;26;20829;-61
2024/04/18 04:01:36;;;;;;;7.97;6.40;;;3.10;99.90;;;;;;5426373;26;20267;-61
2024/04/18 04:04:02;;;;;;;7.40;5.60;;;3.10;99.90;;;;;;5439054;26;20652;-61
2024/04/18 04:06:28;;;;;;;5.70;5.10;;;3.10;99.90;;;;;;5427983;26;21077;-61
2024/04/18 04:08:54;;;;;;;6.83;4.90;;;3.10;99.90;;;;;;5437706;26;20346;-64
2024/04/18 04:11:21;;;;;;;4.93;4.17;;;3.20;99.90;;;;;;5423943;26;20235;-62
2024/04/18 04:13:46;;;;;;;13.10;6.40;;;3.10;99.90;;;;;;5437811;26;20461;-63
2024/04/18 04:16:12;;;;;;;12.97;7.70;;;3.10;99.90;;;;;;5417605;26;20465;-62
2024/04/18 04:18:37;;;;;;;7.77;5.53;;;3.20;99.90;;;;;;5427859;26;20260;-64
2024/04/18 04:21:03;;;;;;;6.93;5.10;;;3.10;99.90;;;;;;5422173;26;20219;-63
2024/04/18 04:23:29;;;;;;;5.73;3.83;;;3.10;99.90;;;;;;5428817;26;20578;-63
2024/04/18 04:25:54;;;;;;;4.03;3.63;;;3.10;99.90;;;;;;5429922;26;20634;-62
2024/04/18 04:28:20;;;;;;;4.23;3.60;;;3.10;99.90;;;;;;5431781;26;20344;-63
2024/04/18 04:30:45;;;;;;;4.67;3.80;;;3.10;99.90;;;;;;5405918;26;20578;-63
2024/04/18 04:33:11;;;;;;;5.57;3.97;;;3.10;99.90;;;;;;5440196;26;20243;-65
2024/04/18 04:35:37;;;;;;;4.10;3.67;;;3.10;99.90;;;;;;5382442;26;20261;-63
2024/04/18 04:38:03;;;;;;;4.93;4.40;;;3.10;99.90;;;;;;5399863;26;20232;-62
2024/04/18 04:40:28;;;;;;;9.63;4.50;;;3.10;99.90;;;;;;5441083;26;20282;-63
2024/04/18 04:42:54;;;;;;;4.37;3.97;;;3.10;99.90;;;;;;5434378;26;20462;-64
2024/04/18 04:45:19;;;;;;;4.17;3.77;;;3.10;99.90;;;;;;5434238;26;20239;-63
2024/04/18 04:47:45;;;;;;;4.83;4.30;;;3.10;99.90;;;;;;5404341;26;20246;-63
2024/04/18 04:50:10;;;;;;;4.27;3.87;;;3.20;99.90;;;;;;5437211;26;20238;-64
2024/04/18 04:52:36;;;;;;;3.23;2.97;;;3.20;99.90;;;;;;5393934;26;20695;-63
2024/04/18 04:55:02;;;;;;;5.43;4.00;;;3.20;99.90;;;;;;5427067;26;20231;-63
2024/04/18 04:57:27;;;;;;;3.53;3.17;;;3.20;99.90;;;;;;5435025;26;20231;-64
2024/04/18 04:59:53;;;;;;;3.87;3.37;;;3.20;99.90;;;;;;5425912;26;21335;-64
2024/04/18 05:02:18;;;;;;;5.33;3.60;;;3.20;99.90;;;;;;5431921;26;20270;-62
2024/04/18 05:04:44;;;;;;;4.87;3.77;;;3.20;99.90;;;;;;5438928;26;20232;-64
2024/04/18 05:07:09;;;;;;;4.30;3.63;;;3.20;99.90;;;;;;5399971;26;20352;-64
2024/04/18 05:09:35;;;;;;;3.83;3.40;;;3.20;99.90;;;;;;5428089;26;20536;-62
2024/04/18 05:12:00;;;;;;;5.57;3.57;;;3.30;99.90;;;;;;5431772;26;20223;-63
2024/04/18 05:14:26;;;;;;;4.67;4.10;;;3.30;99.90;;;;;;5421977;26;20262;-64
2024/04/18 05:16:52;;;;;;;6.80;4.70;;;3.40;99.90;;;;;;5398939;26;20302;-64
2024/04/18 05:19:20;;;;;;;4.43;3.50;;;3.40;99.90;;;;;;5439505;26;20501;-63
2024/04/18 05:21:45;;;;;;;4.37;3.97;;;3.40;99.90;;;;;;5436176;26;20235;-63
2024/04/18 05:24:11;;;;;;;6.30;4.20;;;3.40;99.90;;;;;;5429188;26;20568;-62
2024/04/18 05:26:37;;;;;;;7.33;5.00;;;3.40;99.90;;;;;;5433307;26;20223;-64
2024/04/18 05:31:47;;;;;;;6.93;3.70;;;3.50;99.90;;;;;;5430642;26;21001;-63
2024/04/18 05:34:13;;;;;;;4.43;3.77;;;3.50;99.90;;;;;;5444125;26;20486;-64
2024/04/18 05:36:38;;;;;;;5.00;4.30;;;3.50;99.90;;;;;;5433890;26;20538;-63
2024/04/18 05:39:04;;;;;;;5.60;3.70;;;3.50;99.90;;;;;;5424061;26;20233;-63
2024/04/18 05:41:31;;;;;;;5.97;4.33;;;3.50;99.90;;;;;;5435396;26;20457;-63
2024/04/18 05:43:56;;;;;;;4.27;3.87;;;3.60;99.90;;;;;;5440577;26;20287;-63
2024/04/18 05:46:22;;;;;;;4.27;3.87;;;3.60;99.90;;;;;;5438286;26;20808;-63
2024/04/18 05:48:48;;;;;;;8.87;4.43;;;3.60;99.90;;;;;;5430384;26;20228;-62
2024/04/18 05:51:14;;;;;;;4.63;4.10;;;3.70;99.90;;;;;;5438717;26;20370;-62
2024/04/18 05:53:40;;;;;;;6.30;4.00;;;3.70;99.90;;;;;;5433622;26;20767;-63
2024/04/18 05:56:05;;;;;;;5.40;4.60;;;3.70;99.90;;;;;;5442304;26;20858;-63
2024/04/18 05:58:32;;;;;;;6.00;4.70;;;3.70;99.90;;;;;;5433893;26;20889;-63
2024/04/18 06:00:58;;;;;;;10.73;5.90;;;3.80;99.90;;;;;;5435207;26;20505;-64
2024/04/18 06:03:25;;;;;;;5.97;4.80;;;3.80;99.90;;;;;;5435751;26;20917;-63
2024/04/18 06:05:52;;;;;;;4.77;3.73;;;3.90;99.90;;;;;;5444820;26;20332;-62
2024/04/18 06:08:18;;;;;;;6.60;5.10;;;3.90;99.90;;;;;;5437738;26;20460;-64
2024/04/18 06:10:45;;;;;;;5.20;4.30;;;3.90;99.90;;;;;;5431066;26;20525;-63
2024/04/18 06:13:11;;;;;;;6.23;4.60;;;3.90;99.90;;;;;;5430416;26;20538;-64
2024/04/18 06:15:41;;;;;;;5.60;4.40;;;3.90;99.90;;;;;;5408466;26;20478;-63
2024/04/18 06:18:06;;;;;;;5.20;4.20;;;3.90;99.90;;;;;;5433057;26;20461;-63
2024/04/18 06:20:37;;;;;;;5.60;4.87;;;4.00;99.90;;;;;;5439222;26;20519;-64
2024/04/18 06:23:03;;;;;;;7.03;4.70;;;4.00;99.90;;;;;;5438886;26;20286;-63
2024/04/18 06:25:30;;;;;;;4.40;3.77;;;4.10;99.90;;;;;;5440802;26;20516;-64
2024/04/18 06:27:56;;;;;;;4.67;4.20;;;4.10;99.90;;;;;;5441300;26;20236;-64
2024/04/18 06:30:22;;;;;;;5.80;4.30;;;4.10;99.90;;;;;;5437254;26;20453;-63
2024/04/18 06:32:47;;;;;;;4.60;3.90;;;4.20;99.90;;;;;;5436774;26;20303;-62
2024/04/18 06:35:13;;;;;;;4.53;3.90;;;4.20;99.90;;;;;;5428044;26;20270;-62
2024/04/18 06:37:38;;;;;;;4.87;4.17;;;4.30;99.90;;;;;;5427958;26;20639;-63
2024/04/18 06:40:04;;;;;;;5.87;4.37;;;4.30;99.90;;;;;;5424558;26;20240;-61
2024/04/18 06:42:30;;;;;;;5.83;4.10;;;4.30;99.90;;;;;;5432949;26;20828;-64
2024/04/18 06:44:55;;;;;;;4.50;3.60;;;4.30;99.90;;;;;;5441844;26;20291;-64
2024/04/18 06:47:21;;;;;;;5.03;3.70;;;4.30;99.90;;;;;;5440488;26;20235;-63
2024/04/18 06:49:47;;;;;;;5.00;3.80;;;4.30;99.90;;;;;;5438106;26;20868;-64
2024/04/18 06:52:12;;;;;;;5.60;3.80;;;4.30;99.90;;;;;;5427744;26;20235;-65
2024/04/18 06:54:38;;;;;;;3.60;3.27;;;4.30;99.90;;;;;;5444237;26;20235;-63
2024/04/18 06:57:04;;;;;;;4.27;3.60;;;4.30;99.90;;;;;;5437361;26;20718;-62
2024/04/18 06:59:29;;;;;;;5.57;3.87;;;4.30;99.90;;;;;;5424392;26;20232;-64
2024/04/18 07:01:55;;;;;;;6.67;3.87;;;4.30;99.90;;;;;;5433768;26;20235;-64
2024/04/18 07:04:21;;;;;;;3.13;2.83;;;4.40;99.90;;;;;;5438812;26;20228;-64
2024/04/18 07:06:47;;;;;;;4.67;3.07;;;4.40;99.90;;;;;;5435852;26;20244;-62
2024/04/18 07:09:12;;;;;;;3.20;2.90;;;4.50;99.90;;;;;;5430211;26;20727;-63
2024/04/18 07:11:38;;;;;;;2.60;2.40;;;4.60;99.90;;;;;;5424432;26;20228;-64
2024/04/18 07:14:03;;;;;;;3.87;2.93;;;4.70;99.90;;;;;;5437918;26;20329;-63
2024/04/18 07:16:29;;;;;;;2.10;1.90;;;4.70;99.90;;;;;;5433409;26;20235;-64
2024/04/18 07:18:55;;;;;;;2.73;2.40;;;4.80;99.90;;;;;;5437490;26;20291;-62
2024/04/18 07:21:20;;;;;;;2.47;2.20;;;4.80;99.90;;;;;;5436161;26;20286;-63
2024/04/18 07:23:46;;;;;;;3.00;2.80;;;4.80;99.90;;;;;;5435970;26;20377;-63
2024/04/18 07:26:12;;;;;;;3.23;2.20;;;4.90;99.90;;;;;;5423838;26;20769;-64
2024/04/18 07:28:37;;;;;;;3.00;1.90;;;4.90;99.90;;;;;;5443078;26;20299;-63
2024/04/18 07:31:03;;;;;;;2.40;2.23;;;4.90;99.90;;;;;;5442901;26;20496;-63
2024/04/18 07:33:29;;;;;;;2.90;2.63;;;4.90;99.90;;;;;;5406428;26;20336;-64
2024/04/18 07:35:56;;;;;;;2.57;1.90;;;4.90;99.90;;;;;;5434525;26;20943;-64
2024/04/18 07:38:21;;;;;;;2.93;2.50;;;5.00;99.90;;;;;;5443253;26;20446;-63
2024/04/18 07:40:47;;;;;;;3.07;2.77;;;5.10;99.90;;;;;;5433543;26;20939;-64
2024/04/18 07:43:13;;;;;;;2.40;2.20;;;5.10;98.00;;;;;;5410467;26;20304;-65
2024/04/18 07:45:41;;;;;;;2.03;1.93;;;5.20;94.70;;;;;;5443286;26;20223;-66
2024/04/18 07:48:07;;;;;;;2.40;2.20;;;5.10;94.20;;;;;;5435825;26;20220;-63
2024/04/18 07:50:33;;;;;;;2.50;2.30;;;5.10;92.10;;;;;;5433136;26;20517;-63
2024/04/18 07:52:59;;;;;;;2.50;2.30;;;5.10;87.00;;;;;;5442474;26;20274;-64
2024/04/18 07:55:25;;;;;;;3.27;2.50;;;5.00;88.00;;;;;;5444714;26;20517;-64
2024/04/18 07:57:51;;;;;;;2.83;2.57;;;5.00;92.20;;;;;;5407292;26;20308;-62
2024/04/18 08:00:16;;;;;;;3.10;2.80;;;5.10;94.10;;;;;;5442950;26;20224;-62
2024/04/18 08:02:43;;;;;;;2.80;2.60;;;5.10;91.70;;;;;;5441972;26;20513;-63
2024/04/18 08:05:12;;;;;;;3.10;2.80;;;5.00;91.70;;;;;;5439504;26;20851;-63
2024/04/18 08:07:37;;;;;;;2.30;2.10;;;5.00;92.60;;;;;;5425166;26;21023;-63
2024/04/18 08:10:04;;;;;;;5.00;2.00;;;4.90;91.00;;;;;;5435631;26;20612;-64
2024/04/18 08:12:29;;;;;;;2.70;2.50;;;4.90;91.40;;;;;;5443307;26;20235;-63
2024/04/18 08:14:55;;;;;;;2.27;2.17;;;4.80;91.80;;;;;;5407654;26;20508;-64
2024/04/18 08:17:20;;;;;;;2.63;2.43;;;4.90;93.50;;;;;;5435217;26;20690;-62
2024/04/18 08:19:46;;;;;;;2.43;2.33;;;4.90;93.90;;;;;;5435036;26;20228;-64
2024/04/18 08:22:11;;;;;;;4.30;3.03;;;4.90;92.50;;;;;;5435097;26;20232;-63
2024/04/18 08:24:38;;;;;;;2.80;2.60;;;5.00;94.10;;;;;;5432798;26;20232;-64
2024/04/18 08:27:03;;;;;;;2.80;2.50;;;5.00;93.30;;;;;;5437121;26;20224;-63
2024/04/18 08:29:29;;;;;;;3.40;2.50;;;5.10;92.50;;;;;;5436361;26;20496;-64
2024/04/18 08:31:55;;;;;;;2.57;2.37;;;5.10;91.70;;;;;;5431184;26;20223;-64
2024/04/18 08:34:20;;;;;;;3.00;2.70;;;5.20;92.20;;;;;;5410112;26;20254;-63
2024/04/18 08:36:46;;;;;;;3.27;2.90;;;5.20;90.90;;;;;;5435206;26;20275;-63
2024/04/18 08:39:15;;;;;;;4.10;2.90;;;5.20;89.50;;;;;;5435133;26;20270;-64
2024/04/18 08:41:42;;;;;;;4.30;3.40;;;5.20;87.90;;;;;;5430125;26;21218;-63
2024/04/18 08:44:09;;;;;;;3.20;2.90;;;5.20;91.10;;;;;;5435071;26;20521;-64
2024/04/18 08:46:36;;;;;;;3.90;3.40;;;5.40;92.30;;;;;;5438091;26;20517;-63
2024/04/18 08:49:05;;;;;;;2.87;2.67;;;5.60;92.50;;;;;;5427519;26;21053;-64
2024/04/18 08:51:33;;;;;;;2.80;2.50;;;5.80;92.00;;;;;;5399159;26;20461;-64
2024/04/18 08:53:58;;;;;;;3.50;3.17;;;5.90;88.30;;;;;;5436975;26;20453;-64
2024/04/18 08:56:26;;;;;;;2.70;2.50;;;6.10;87.10;;;;;;5394481;26;20457;-64
2024/04/18 08:58:52;;;;;;;5.10;2.60;;;6.20;88.30;;;;;;5429747;26;20301;-64
2024/04/18 09:01:18;;;;;;;2.87;2.57;;;6.30;83.30;;;;;;5433943;26;20883;-63
2024/04/18 09:03:44;;;;;;;6.13;2.43;;;6.40;80.50;;;;;;5439275;26;20231;-62
2024/04/18 09:06:10;;;;;;;3.10;2.40;;;6.40;77.60;;;;;;5432227;26;20224;-63
2024/04/18 09:08:37;;;;;;;2.87;2.67;;;6.30;73.60;;;;;;5436263;26;20283;-63
2024/04/18 09:11:04;;;;;;;3.70;2.93;;;6.20;74.80;;;;;;5437370;26;20520;-64
2024/04/18 09:13:30;;;;;;;6.43;2.43;;;6.20;76.10;;;;;;5434382;26;20460;-64
2024/04/18 09:15:56;;;;;;;2.87;2.50;;;6.20;76.00;;;;;;5433527;26;20453;-64
2024/04/18 09:18:22;;;;;;;2.90;2.43;;;6.20;75.70;;;;;;5400936;26;21059;-64
2024/04/18 09:20:48;;;;;;;3.37;2.63;;;6.20;75.20;;;;;;5435424;26;20266;-60
2024/04/18 09:23:14;;;;;;;2.67;2.47;;;6.20;73.30;;;;;;5422859;26;20457;-63
2024/04/18 09:25:41;;;;;;;4.43;2.70;;;6.20;71.10;;;;;;5395984;26;20465;-65
2024/04/18 09:28:06;;;;;;;2.13;2.00;;;6.10;69.80;;;;;;5395484;26;20357;-63
2024/04/18 09:30:34;;;;;;;3.07;2.77;;;6.00;68.90;;;;;;5427653;26;20457;-64
2024/04/18 09:33:01;;;;;;;3.10;2.30;;;6.00;70.50;;;;;;5423191;26;20910;-64
2024/04/18 09:35:30;;;;;;;2.43;2.20;;;6.00;71.60;;;;;;5428642;26;20462;-63
2024/04/18 09:37:57;;;;;;;2.63;2.07;;;6.00;71.60;;;;;;5431212;26;20441;-63
2024/04/18 09:40:26;;;;;;;3.30;2.60;;;6.00;71.10;;;;;;5428476;26;20449;-64
2024/04/18 09:43:30;;;;;;;2.70;2.43;;;6.10;73.20;;;;;;5421848;26;20561;-62
2024/04/18 09:46:05;;;;;;;2.30;2.10;;;6.30;73.80;;;;;;5425824;26;20513;-64
2024/04/18 09:48:32;;;;;;;2.77;2.57;;;6.50;74.90;;;;;;5432858;26;20452;-62
2024/04/18 09:50:59;;;;;;;5.60;3.27;;;6.70;70.20;;;;;;5423452;26;20473;-64
2024/04/18 09:53:25;;;;;;;4.37;3.60;;;6.80;69.60;;;;;;5423486;26;20509;-62
2024/04/18 09:55:51;;;;;;;3.23;2.93;;;6.90;67.70;;;;;;5432732;26;21031;-61
2024/04/18 09:58:22;;;;;;;3.63;2.07;;;7.00;69.80;;;;;;5428731;26;20567;-62
2024/04/18 10:00:48;;;;;;;1.60;1.50;;;7.10;70.10;;;;;;5432269;26;20220;-62
2024/04/18 10:03:15;;;;;;;1.70;1.60;;;7.10;71.40;;;;;;5439564;26;20470;-62
2024/04/18 10:05:47;;;;;;;1.50;1.40;;;7.00;74.00;;;;;;5444056;26;20497;-60
2024/04/18 10:08:15;;;;;;;1.50;1.40;;;6.80;73.40;;;;;;5431737;26;21018;-63
2024/04/18 10:10:43;;;;;;;2.20;1.60;;;6.60;73.70;;;;;;5436429;26;21140;-63
2024/04/18 10:13:09;;;;;;;1.97;1.50;;;6.50;77.30;;;;;;5408038;26;20548;-61
2024/04/18 10:15:35;;;;;;;1.70;1.60;;;6.70;87.00;;;;;;5432181;26;20454;-63
2024/04/18 10:18:20;;;;;;;1.70;1.60;;;7.00;96.20;;;;;;5440978;26;20535;-63
2024/04/18 10:20:46;;;;;;;1.80;1.70;;;7.50;93.20;;;;;;5439855;26;20232;-63
2024/04/18 10:23:15;;;;;;;1.40;1.30;;;7.80;84.70;;;;;;5439480;26;20501;-62
2024/04/18 10:25:43;;;;;;;1.57;1.47;;;8.00;76.60;;;;;;5404673;26;20262;-62
2024/04/18 10:28:22;;;;;;;1.70;1.30;;;8.00;72.50;;;;;;5435523;26;21271;-64
2024/04/18 10:30:48;;;;;;;1.90;1.80;;;7.90;69.90;;;;;;5418670;26;20449;-61
2024/04/18 10:33:13;;;;;;;1.50;1.40;;;7.80;69.00;;;;;;5431963;26;20522;-60
2024/04/18 10:35:40;;;;;;;2.13;1.70;;;7.70;66.70;;;;;;5425896;26;20649;-60
2024/04/18 10:38:06;;;;;;;1.73;1.63;;;7.60;65.70;;;;;;5436921;26;20577;-60
2024/04/18 10:40:32;;;;;;;1.80;1.70;;;7.70;67.30;;;;;;5440751;26;20505;-58
2024/04/18 10:43:14;;;;;;;2.53;2.30;;;7.60;64.20;;;;;;5436654;26;20278;-60
2024/04/18 10:45:41;;;;;;;2.00;1.80;;;7.60;64.50;;;;;;5440682;26;20449;-60
2024/04/18 10:48:07;;;;;;;2.70;1.90;;;7.90;66.40;;;;;;5437237;26;20450;-60
2024/04/18 10:50:37;;;;;;;1.50;1.40;;;8.40;66.40;;;;;;5440717;26;21761;-61
2024/04/18 10:53:04;;;;;;;1.63;1.53;;;8.70;66.30;;;;;;5426364;26;20484;-59
2024/04/18 10:55:30;;;;;;;3.73;2.13;;;9.10;67.20;;;;;;5430355;26;20510;-59
2024/04/18 10:57:56;;;;;;;1.80;1.70;;;9.30;63.10;;;;;;5421342;26;20546;-62
2024/04/18 11:00:22;;;;;;;2.10;1.90;;;9.20;60.80;;;;;;5398034;26;20571;-62
2024/04/18 11:02:55;;;;;;;1.70;1.60;;;9.00;59.80;;;;;;5428084;26;20235;-61
2024/04/18 11:05:21;;;;;;;2.30;2.10;;;8.80;60.60;;;;;;5386825;26;20224;-64
2024/04/18 11:07:50;;;;;;;3.10;2.27;;;8.60;60.90;;;;;;5434285;26;20448;-63
2024/04/18 11:10:16;;;;;;;2.87;2.00;;;8.50;61.70;;;;;;5429063;26;20275;-63
2024/04/18 11:12:41;;;;;;;2.10;1.90;;;8.30;60.70;;;;;;5429865;26;20469;-62
2024/04/18 11:15:07;;;;;;;2.50;2.30;;;8.20;61.40;;;;;;5430735;26;20270;-63
2024/04/18 11:17:36;;;;;;;2.17;1.97;;;8.40;63.30;;;;;;5426100;26;20457;-63
2024/04/18 11:20:02;;;;;;;2.40;2.20;;;8.70;63.20;;;;;;5420220;26;20219;-63
2024/04/18 11:22:28;;;;;;;4.23;2.30;;;9.00;62.60;;;;;;5425579;26;20462;-63
2024/04/18 11:24:55;;;;;;;1.80;1.67;;;9.30;61.50;;;;;;5439398;26;20307;-63
2024/04/18 11:27:25;;;;;;;2.30;2.10;;;9.60;60.90;;;;;;5433506;26;20328;-63
2024/04/18 11:29:51;;;;;;;1.87;1.77;;;9.90;60.00;;;;;;5392829;26;20454;-63
2024/04/18 11:32:17;;;;;;;1.70;1.60;;;9.90;58.60;;;;;;5417911;26;20588;-63
2024/04/18 11:34:42;;;;;;;2.10;1.97;;;9.80;55.40;;;;;;5425061;26;20536;-63
2024/04/18 11:37:11;;;;;;;1.60;1.50;;;9.60;57.50;;;;;;5442566;26;20315;-63
2024/04/18 11:39:38;;;;;;;2.40;1.97;;;9.60;58.90;;;;;;5436540;26;20223;-63
2024/04/18 11:42:04;;;;;;;1.90;1.80;;;9.60;58.00;;;;;;5428605;26;20509;-63
2024/04/18 11:44:30;;;;;;;1.90;1.80;;;9.40;57.90;;;;;;5420898;26;20454;-63
2024/04/18 11:46:55;;;;;;;2.73;2.13;;;9.30;57.70;;;;;;5421203;26;20270;-63
2024/04/18 11:49:21;;;;;;;2.30;2.10;;;9.00;56.20;;;;;;5440348;26;20573;-63
2024/04/18 11:51:46;;;;;;;2.10;1.90;;;8.90;55.90;;;;;;5437481;26;20274;-63
2024/04/18 11:54:12;;;;;;;2.10;1.90;;;9.10;55.40;;;;;;5432126;26;20281;-63
2024/04/18 11:56:38;;;;;;;2.20;2.00;;;9.40;55.10;;;;;;5412669;26;20694;-63
2024/04/18 11:59:03;;;;;;;2.07;1.83;;;9.80;56.60;;;;;;5427725;26;20224;-63
2024/04/18 12:01:32;;;;;;;2.13;1.93;;;10.20;54.80;;;;;;5402046;26;20227;-63
2024/04/18 12:03:57;;;;;;;2.00;1.90;;;10.60;52.50;;;;;;5424749;26;20302;-62
2024/04/18 12:06:23;;;;;;;1.90;1.80;;;11.00;51.70;;;;;;5435633;26;20478;-63
2024/04/18 12:08:50;;;;;;;2.00;1.80;;;11.30;53.50;;;;;;5396805;26;20236;-63
2024/04/18 12:11:16;;;;;;;1.90;1.80;;;11.30;54.40;;;;;;5412828;26;20453;-64
2024/04/18 12:13:41;;;;;;;1.90;1.80;;;11.00;54.00;;;;;;5442752;26;20539;-62
2024/04/18 12:16:07;;;;;;;1.90;1.80;;;10.60;53.60;;;;;;5443395;26;20246;-63
2024/04/18 12:18:33;;;;;;;2.00;1.80;;;10.20;54.70;;;;;;5440020;26;20223;-62
2024/04/18 12:20:58;;;;;;;2.20;2.10;;;10.10;56.40;;;;;;5429123;26;20327;-63
2024/04/18 12:23:25;;;;;;;1.90;1.80;;;10.30;57.60;;;;;;5426196;26;20337;-63
2024/04/18 12:25:51;;;;;;;1.60;1.50;;;10.70;57.50;;;;;;5419825;26;20264;-63
2024/04/18 12:28:17;;;;;;;1.50;1.40;;;10.90;55.50;;;;;;5409501;26;20801;-64
2024/04/18 12:30:42;;;;;;;1.47;1.37;;;10.80;54.10;;;;;;5435021;26;20509;-63
2024/04/18 12:33:08;;;;;;;1.40;1.30;;;10.60;53.30;;;;;;5437106;26;20340;-64
2024/04/18 12:35:34;;;;;;;1.30;1.20;;;10.30;53.30;;;;;;5444239;26;20274;-63
2024/04/18 12:37:59;;;;;;;1.80;1.70;;;10.00;54.50;;;;;;5441124;26;20325;-63
2024/04/18 12:40:25;;;;;;;1.40;1.30;;;9.80;56.40;;;;;;5436369;26;20830;-63
2024/04/18 12:42:50;;;;;;;1.77;1.50;;;9.80;57.50;;;;;;5428072;26;20274;-63
2024/04/18 12:45:16;;;;;;;1.50;1.40;;;9.60;57.90;;;;;;5439459;26;20297;-62
2024/04/18 12:47:42;;;;;;;1.50;1.40;;;9.50;58.20;;;;;;5428784;26;20236;-60
2024/04/18 12:50:07;;;;;;;4.07;1.50;;;9.40;57.60;;;;;;5422125;26;20339;-63
2024/04/18 12:52:33;;;;;;;1.90;1.80;;;9.30;57.60;;;;;;5433831;26;20578;-63